createdAt,value
2019-04-16T00:00:32.404Z,14.80
2019-04-16T00:01:47.918Z,9.70
2019-04-16T00:02:57.596Z,10.75
2019-04-16T00:04:06.580Z,10.68
2019-04-16T00:05:13.031Z,12.05
2019-04-16T00:06:37.419Z,12.70
2019-04-16T00:07:55.728Z,14.33
2019-04-16T00:09:07.686Z,13.93
2019-04-16T00:10:28.988Z,13.32
2019-04-16T00:11:44.614Z,13.98
2019-04-16T00:12:50.712Z,14.10
2019-04-16T00:14:02.971Z,12.15
2019-04-16T00:15:07.361Z,11.97
2019-04-16T00:16:12.948Z,13.95
2019-04-16T00:17:18.124Z,13.32
2019-04-16T00:18:22.667Z,13.58
2019-04-16T00:19:27.124Z,11.43
2019-04-16T00:20:36.919Z,11.75
2019-04-16T00:21:53.304Z,10.95
2019-04-16T00:23:02.525Z,11.38
2019-04-16T00:24:18.178Z,12.80
2019-04-16T00:25:20.954Z,11.25
2019-04-16T00:26:26.793Z,11.18
2019-04-16T00:27:31.859Z,12.18
2019-04-16T00:28:37.313Z,14.70
2019-04-16T00:29:41.770Z,13.22
2019-04-16T00:30:46.595Z,11.83
2019-04-16T00:31:52.591Z,14.20
2019-04-16T00:32:57.049Z,11.65
2019-04-16T00:34:01.517Z,13.13
2019-04-16T00:35:06.745Z,15.60
2019-04-16T00:36:11.199Z,13.72
2019-04-16T00:37:20.268Z,10.53
2019-04-16T00:38:22.777Z,10.95
2019-04-16T00:39:28.838Z,11.35
2019-04-16T00:40:33.291Z,12.70
2019-04-16T00:41:37.745Z,12.40
2019-04-16T00:42:42.210Z,13.00
2019-04-16T00:43:46.658Z,15.05
2019-04-16T00:44:51.136Z,14.50
2019-04-16T00:45:55.660Z,12.05
2019-04-16T00:47:00.119Z,11.10
2019-04-16T00:48:04.574Z,15.70
2019-04-16T00:49:09.039Z,11.15
2019-04-16T00:50:13.846Z,13.32
2019-04-16T00:51:18.705Z,13.88
2019-04-16T00:52:23.163Z,17.65
2019-04-16T00:53:27.624Z,14.07
2019-04-16T00:54:32.096Z,12.40
2019-04-16T00:55:36.921Z,12.50
2019-04-16T00:56:43.582Z,13.85
2019-04-16T00:57:48.663Z,12.63
2019-04-16T00:58:53.760Z,15.68
2019-04-16T00:59:58.231Z,12.68
2019-04-16T01:01:02.689Z,13.60
2019-04-16T01:02:07.147Z,14.55
2019-04-16T01:03:12.676Z,15.55
2019-04-16T01:04:17.131Z,15.20
2019-04-16T01:05:21.944Z,13.22
2019-04-16T01:06:26.397Z,18.65
2019-04-16T01:07:30.916Z,10.70
2019-04-16T01:08:35.380Z,11.90
2019-04-16T01:09:40.303Z,13.05
2019-04-16T01:10:45.187Z,11.22
2019-04-16T01:11:49.825Z,13.93
2019-04-16T01:12:54.296Z,14.55
2019-04-16T01:13:58.751Z,11.93
2019-04-16T01:15:03.298Z,16.17
2019-04-16T01:16:09.195Z,14.40
2019-04-16T01:17:13.918Z,14.47
2019-04-16T01:18:18.370Z,13.40
2019-04-16T01:19:22.821Z,12.10
2019-04-16T01:20:27.885Z,12.30
2019-04-16T01:21:32.339Z,12.30
2019-04-16T01:22:36.798Z,13.48
2019-04-16T01:23:41.323Z,15.65
2019-04-16T01:24:46.066Z,12.78
2019-04-16T01:25:55.345Z,16.87
2019-04-16T01:26:58.288Z,12.18
2019-04-16T01:28:05.107Z,17.52
2019-04-16T01:29:11.338Z,14.95
2019-04-16T01:30:17.518Z,16.32
2019-04-16T01:31:29.623Z,11.85
2019-04-16T01:32:51.952Z,15.08
2019-04-16T01:34:15.266Z,14.43
2019-04-16T01:35:27.727Z,13.62
2019-04-16T01:36:36.752Z,16.10
2019-04-16T01:37:59.231Z,10.55
2019-04-16T01:39:17.719Z,14.90
2019-04-16T01:40:22.366Z,12.82
2019-04-16T01:41:26.843Z,12.28
2019-04-16T01:42:32.155Z,12.25
2019-04-16T01:43:36.605Z,16.05
2019-04-16T01:44:41.058Z,12.85
2019-04-16T01:45:45.543Z,12.35
2019-04-16T01:46:50.000Z,14.95
2019-04-16T01:47:54.795Z,15.15
2019-04-16T01:48:59.614Z,14.63
2019-04-16T01:50:04.614Z,14.63
2019-04-16T01:51:12.638Z,12.03
2019-04-16T01:52:19.070Z,13.05
2019-04-16T01:53:23.618Z,13.38
2019-04-16T01:54:28.230Z,15.03
2019-04-16T01:55:32.692Z,12.37
2019-04-16T01:56:37.171Z,13.88
2019-04-16T01:57:41.629Z,12.63
2019-04-16T01:58:46.091Z,15.05
2019-04-16T01:59:50.549Z,17.12
2019-04-16T02:00:55.311Z,15.30
2019-04-16T02:02:00.119Z,15.83
2019-04-16T02:03:04.572Z,13.30
2019-04-16T02:04:09.383Z,16.93
2019-04-16T02:05:13.866Z,12.90
2019-04-16T02:06:18.343Z,15.13
2019-04-16T02:07:27.726Z,16.80
2019-04-16T02:08:31.746Z,16.12
2019-04-16T02:09:35.746Z,16.97
2019-04-16T02:10:40.343Z,11.95
2019-04-16T02:11:44.817Z,17.05
2019-04-16T02:12:49.645Z,13.95
2019-04-16T02:13:54.107Z,14.68
2019-04-16T02:14:58.560Z,16.02
2019-04-16T02:16:03.037Z,16.75
2019-04-16T02:17:07.802Z,16.57
2019-04-16T02:18:12.446Z,14.33
2019-04-16T02:19:17.179Z,14.60
2019-04-16T02:20:21.636Z,13.50
2019-04-16T02:21:26.110Z,14.53
2019-04-16T02:22:30.569Z,16.10
2019-04-16T02:23:35.029Z,14.60
2019-04-16T02:24:39.790Z,14.95
2019-04-16T02:25:44.248Z,17.73
2019-04-16T02:26:49.122Z,14.38
2019-04-16T02:27:54.245Z,15.13
2019-04-16T02:29:00.446Z,16.20
2019-04-16T02:30:06.768Z,13.08
2019-04-16T02:31:15.350Z,13.58
2019-04-16T02:32:17.453Z,17.65
2019-04-16T02:33:22.250Z,14.73
2019-04-16T02:34:26.703Z,15.15
2019-04-16T02:35:31.160Z,17.70
2019-04-16T02:36:35.997Z,13.25
2019-04-16T02:37:40.445Z,16.87
2019-04-16T02:38:52.617Z,17.02
2019-04-16T02:39:51.470Z,16.67
2019-04-16T02:40:55.930Z,14.65
2019-04-16T02:42:01.720Z,15.53
2019-04-16T02:43:07.693Z,15.80
2019-04-16T02:44:16.565Z,15.75
2019-04-16T02:45:23.728Z,19.10
2019-04-16T02:46:30.931Z,14.75
2019-04-16T02:47:31.892Z,16.45
2019-04-16T02:48:36.415Z,14.60
2019-04-16T02:49:40.874Z,18.60
2019-04-16T02:50:46.977Z,15.08
2019-04-16T02:51:59.475Z,17.85
2019-04-16T02:53:11.277Z,16.82
2019-04-16T02:54:17.402Z,14.63
2019-04-16T02:55:29.189Z,14.50
2019-04-16T02:56:52.860Z,15.28
2019-04-16T02:58:02.503Z,15.88
2019-04-16T02:59:12.403Z,16.85
2019-04-16T03:00:32.202Z,14.25
2019-04-16T03:01:43.766Z,16.27
2019-04-16T03:02:59.058Z,14.58
2019-04-16T03:04:05.152Z,15.23
2019-04-16T03:05:11.320Z,15.55
2019-04-16T03:06:15.848Z,16.87
2019-04-16T03:07:20.630Z,16.95
2019-04-16T03:08:25.084Z,18.50
2019-04-16T03:09:29.808Z,16.75
2019-04-16T03:10:34.258Z,15.43
2019-04-16T03:11:42.111Z,19.25
2019-04-16T03:12:51.795Z,18.75
2019-04-16T03:13:58.388Z,16.25
2019-04-16T03:15:01.208Z,17.15
2019-04-16T03:16:10.053Z,19.20
2019-04-16T03:17:32.294Z,17.25
2019-04-16T03:18:38.563Z,15.10
2019-04-16T03:19:44.644Z,18.57
2019-04-16T03:20:49.497Z,16.23
2019-04-16T03:21:55.722Z,15.05
2019-04-16T03:23:05.286Z,19.85
2019-04-16T03:24:09.346Z,16.02
2019-04-16T03:25:15.231Z,19.25
2019-04-16T03:26:19.647Z,15.85
2019-04-16T03:27:24.128Z,20.92
2019-04-16T03:28:28.591Z,15.08
2019-04-16T03:29:33.383Z,14.33
2019-04-16T03:30:42.234Z,19.12
2019-04-16T03:31:44.082Z,16.77
2019-04-16T03:32:51.196Z,14.98
2019-04-16T03:33:55.686Z,17.00
2019-04-16T03:35:00.142Z,16.60
2019-04-16T03:36:04.601Z,15.48
2019-04-16T03:37:09.123Z,16.87
2019-04-16T03:38:13.598Z,18.02
2019-04-16T03:39:18.052Z,16.87
2019-04-16T03:40:25.674Z,16.15
2019-04-16T03:41:28.666Z,15.83
2019-04-16T03:42:33.496Z,19.20
2019-04-16T03:43:38.038Z,17.40
2019-04-16T03:44:42.805Z,16.37
2019-04-16T03:45:47.265Z,16.80
2019-04-16T03:46:51.719Z,14.58
2019-04-16T03:47:56.192Z,16.52
2019-04-16T03:49:00.647Z,14.05
2019-04-16T03:50:08.271Z,32.17
2019-04-16T03:51:13.098Z,20.37
2019-04-16T03:52:17.565Z,18.32
2019-04-16T03:53:22.165Z,16.80
2019-04-16T03:54:26.619Z,16.10
2019-04-16T03:55:31.147Z,17.95
2019-04-16T03:56:35.600Z,14.65
2019-04-16T03:57:40.342Z,17.07
2019-04-16T03:58:44.823Z,17.07
2019-04-16T03:59:49.279Z,17.70
2019-04-16T04:00:54.894Z,17.40
2019-04-16T04:01:59.424Z,18.17
2019-04-16T04:03:04.420Z,19.55
2019-04-16T04:04:09.955Z,21.30
2019-04-16T04:05:16.404Z,25.88
2019-04-16T04:06:21.281Z,37.73
2019-04-16T04:07:26.852Z,26.62
2019-04-16T04:08:31.702Z,23.32
2019-04-16T04:09:36.488Z,35.28
2019-04-16T04:10:42.494Z,32.75
2019-04-16T04:11:46.939Z,42.20
2019-04-16T04:12:51.696Z,35.50
2019-04-16T04:13:56.176Z,39.83
2019-04-16T04:15:01.963Z,27.27
2019-04-16T04:16:06.418Z,29.87
2019-04-16T04:17:10.901Z,28.27
2019-04-16T04:18:15.358Z,33.25
2019-04-16T04:19:20.348Z,74.45
2019-04-16T04:20:24.817Z,75.22
2019-04-16T04:21:29.645Z,97.55
2019-04-16T04:22:34.502Z,82.70
2019-04-16T04:23:39.290Z,64.00
2019-04-16T04:24:43.819Z,45.48
2019-04-16T04:25:48.579Z,42.73
2019-04-16T04:26:53.341Z,53.20
2019-04-16T04:27:58.152Z,64.65
2019-04-16T04:29:05.964Z,36.00
2019-04-16T04:30:09.247Z,51.83
2019-04-16T04:31:13.796Z,50.73
2019-04-16T04:32:18.254Z,67.25
2019-04-16T04:33:41.814Z,68.75
2019-04-16T04:34:45.490Z,48.68
2019-04-16T04:35:51.981Z,52.90
2019-04-16T04:36:59.745Z,45.28
2019-04-16T04:38:04.229Z,49.42
2019-04-16T04:39:14.435Z,52.70
2019-04-16T04:40:17.105Z,47.43
2019-04-16T04:41:23.447Z,37.85
2019-04-16T04:42:28.936Z,46.55
2019-04-16T04:43:33.512Z,32.60
2019-04-16T04:44:38.459Z,42.45
2019-04-16T04:45:42.913Z,34.83
2019-04-16T04:46:47.384Z,24.05
2019-04-16T04:47:52.368Z,30.15
2019-04-16T04:49:00.025Z,31.62
2019-04-16T04:50:04.370Z,29.75
2019-04-16T04:51:09.131Z,57.13
2019-04-16T04:52:14.873Z,63.87
2019-04-16T04:53:20.116Z,53.68
2019-04-16T04:54:24.969Z,58.38
2019-04-16T04:55:29.418Z,46.45
2019-04-16T04:56:33.880Z,41.35
2019-04-16T04:57:38.339Z,43.52
2019-04-16T04:58:42.818Z,51.45
2019-04-16T04:59:47.291Z,47.23
2019-04-16T05:00:51.819Z,43.13
2019-04-16T05:01:56.568Z,47.43
2019-04-16T05:03:01.029Z,62.83
2019-04-16T05:04:07.127Z,51.48
2019-04-16T05:05:24.453Z,77.27
2019-04-16T05:06:28.000Z,60.70
2019-04-16T05:07:32.521Z,59.93
2019-04-16T05:08:36.974Z,40.67
2019-04-16T05:09:41.457Z,46.23
2019-04-16T05:10:58.339Z,34.53
2019-04-16T05:11:52.069Z,32.60
2019-04-16T05:12:56.820Z,30.82
2019-04-16T05:14:01.279Z,18.95
2019-04-16T05:15:09.348Z,22.35
2019-04-16T05:16:13.870Z,16.05
2019-04-16T05:17:18.324Z,18.40
2019-04-16T05:18:22.775Z,15.10
2019-04-16T05:19:27.587Z,18.67
2019-04-16T05:20:32.335Z,18.92
2019-04-16T05:21:36.788Z,20.68
2019-04-16T05:22:41.634Z,15.15
2019-04-16T05:23:46.091Z,18.50
2019-04-16T05:24:50.570Z,17.95
2019-04-16T05:25:55.032Z,18.00
2019-04-16T05:26:59.477Z,19.45
2019-04-16T05:28:04.222Z,24.25
2019-04-16T05:29:16.069Z,25.75
2019-04-16T05:30:21.085Z,23.12
2019-04-16T05:31:25.619Z,19.25
2019-04-16T05:32:33.845Z,27.70
2019-04-16T05:33:37.512Z,15.03
2019-04-16T05:34:43.046Z,24.02
2019-04-16T05:35:47.867Z,29.20
2019-04-16T05:36:52.328Z,24.18
2019-04-16T05:37:57.630Z,31.77
2019-04-16T05:39:03.676Z,17.55
2019-04-16T05:40:08.482Z,26.65
2019-04-16T05:41:16.995Z,27.35
2019-04-16T05:42:19.098Z,19.87
2019-04-16T05:43:23.630Z,32.55
2019-04-16T05:44:33.075Z,42.00
2019-04-16T05:45:34.579Z,36.70
2019-04-16T05:46:41.381Z,22.00
2019-04-16T05:47:49.068Z,22.80
2019-04-16T05:48:53.977Z,31.40
2019-04-16T05:49:59.072Z,23.67
2019-04-16T05:51:03.529Z,18.00
2019-04-16T05:52:07.981Z,31.50
2019-04-16T05:53:13.769Z,17.92
2019-04-16T05:54:28.763Z,39.30
2019-04-16T05:55:34.874Z,23.45
2019-04-16T05:56:46.958Z,31.40
2019-04-16T05:57:57.960Z,34.20
2019-04-16T05:58:59.571Z,23.40
2019-04-16T06:00:10.417Z,21.97
2019-04-16T06:01:19.981Z,24.20
2019-04-16T06:02:38.452Z,31.33
2019-04-16T06:03:43.185Z,23.73
2019-04-16T06:04:47.665Z,32.75
2019-04-16T06:05:52.480Z,39.08
2019-04-16T06:06:57.297Z,53.15
2019-04-16T06:08:11.851Z,44.63
2019-04-16T06:09:16.313Z,40.60
2019-04-16T06:10:21.215Z,30.97
2019-04-16T06:11:29.111Z,26.30
2019-04-16T06:12:39.542Z,24.30
2019-04-16T06:13:45.143Z,24.12
2019-04-16T06:14:53.909Z,47.85
2019-04-16T06:16:05.266Z,47.43
2019-04-16T06:17:31.787Z,48.48
2019-04-16T06:18:51.156Z,31.73
2019-04-16T06:19:57.698Z,37.20
2019-04-16T06:21:03.809Z,34.20
2019-04-16T06:22:09.908Z,77.97
2019-04-16T06:23:32.660Z,39.00
2019-04-16T06:24:56.890Z,20.15
2019-04-16T06:26:05.883Z,17.73
2019-04-16T06:27:11.979Z,18.80
2019-04-16T06:28:24.527Z,28.38
2019-04-16T06:29:33.374Z,56.33
2019-04-16T06:30:42.448Z,67.67
2019-04-16T06:31:57.266Z,44.55
2019-04-16T06:33:06.397Z,21.93
2019-04-16T06:34:13.912Z,23.92
2019-04-16T06:35:43.164Z,41.25
2019-04-16T06:36:50.060Z,26.10
2019-04-16T06:37:56.155Z,26.37
2019-04-16T06:39:19.904Z,37.35
2019-04-16T06:40:42.073Z,81.37
2019-04-16T06:42:04.420Z,42.60
2019-04-16T06:43:13.651Z,30.92
2019-04-16T06:44:19.751Z,13.78
2019-04-16T06:45:36.492Z,30.32
2019-04-16T06:46:48.046Z,57.20
2019-04-16T06:47:54.140Z,21.95
2019-04-16T06:49:00.526Z,22.85
2019-04-16T06:50:10.886Z,27.75
2019-04-16T06:51:33.678Z,29.70
2019-04-16T06:52:55.986Z,23.20
2019-04-16T06:54:18.213Z,55.28
2019-04-16T06:55:42.731Z,41.33
2019-04-16T06:56:52.967Z,24.95
2019-04-16T06:58:16.638Z,108.92
2019-04-16T06:59:33.559Z,68.57
2019-04-16T07:00:55.013Z,42.08
2019-04-16T07:03:18.438Z,48.52
2019-04-16T07:04:40.684Z,59.85
2019-04-16T07:06:03.918Z,30.95
2019-04-16T07:07:38.728Z,23.15
2019-04-16T07:08:51.282Z,36.25
2019-04-16T07:10:03.522Z,29.82
2019-04-16T07:11:09.929Z,22.62
2019-04-16T07:12:16.046Z,17.77
2019-04-16T07:13:20.585Z,15.80
2019-04-16T07:14:25.030Z,27.85
2019-04-16T07:15:29.497Z,24.37
2019-04-16T07:16:33.946Z,18.82
2019-04-16T07:17:40.404Z,59.77
2019-04-16T07:18:44.591Z,55.00
2019-04-16T07:19:49.068Z,24.40
2019-04-16T07:20:53.512Z,23.50
2019-04-16T07:21:57.972Z,57.40
2019-04-16T07:23:02.452Z,40.30
2019-04-16T07:24:07.292Z,76.67
2019-04-16T07:25:12.298Z,48.23
2019-04-16T07:26:17.309Z,20.88
2019-04-16T07:27:21.753Z,15.43
2019-04-16T07:28:39.936Z,16.50
2019-04-16T07:29:47.113Z,16.65
2019-04-16T07:30:56.134Z,14.55
2019-04-16T07:32:20.752Z,19.07
2019-04-16T07:33:35.888Z,26.05
2019-04-16T07:34:58.349Z,35.55
2019-04-16T07:36:16.635Z,20.45
2019-04-16T07:37:38.761Z,15.63
2019-04-16T07:38:44.852Z,20.50
2019-04-16T07:40:10.010Z,20.97
2019-04-16T07:41:20.994Z,14.90
2019-04-16T07:43:47.208Z,24.90
2019-04-16T07:44:08.143Z,22.20
2019-04-16T07:45:17.106Z,18.05
2019-04-16T07:46:29.278Z,22.67
2019-04-16T07:47:35.383Z,21.07
2019-04-16T07:48:41.495Z,13.40
2019-04-16T07:50:02.919Z,15.90
2019-04-16T07:52:42.599Z,36.25
2019-04-16T07:53:55.477Z,22.55
2019-04-16T07:55:16.885Z,24.32
2019-04-16T07:57:27.238Z,23.02
2019-04-16T07:58:31.730Z,20.25
2019-04-16T07:59:36.189Z,18.48
2019-04-16T08:00:41.707Z,22.87
2019-04-16T08:01:47.785Z,21.20
2019-04-16T08:02:53.844Z,29.05
2019-04-16T08:04:01.015Z,26.57
2019-04-16T08:05:08.689Z,19.48
2019-04-16T08:06:14.277Z,18.17
2019-04-16T08:07:20.602Z,18.42
2019-04-16T08:08:25.480Z,27.37
2019-04-16T08:09:30.150Z,16.87
2019-04-16T08:10:34.880Z,17.98
2019-04-16T08:11:39.339Z,16.77
2019-04-16T08:12:45.442Z,15.35
2019-04-16T08:13:50.216Z,17.32
2019-04-16T08:14:54.697Z,12.80
2019-04-16T08:16:00.231Z,19.12
2019-04-16T08:17:05.098Z,20.20
2019-04-16T08:18:09.524Z,18.40
2019-04-16T08:19:15.335Z,16.42
2019-04-16T08:20:21.369Z,15.95
2019-04-16T08:21:25.865Z,15.20
2019-04-16T08:22:30.378Z,14.65
2019-04-16T08:23:39.113Z,17.70
2019-04-16T08:24:47.017Z,15.63
2019-04-16T08:26:00.278Z,12.53
2019-04-16T08:26:57.962Z,17.95
2019-04-16T08:28:02.420Z,17.70
2019-04-16T08:29:07.262Z,13.93
2019-04-16T08:30:13.956Z,18.23
2019-04-16T08:31:20.060Z,17.07
2019-04-16T08:32:26.018Z,25.15
2019-04-16T08:33:30.528Z,15.78
2019-04-16T08:34:35.011Z,16.85
2019-04-16T08:35:39.472Z,13.78
2019-04-16T08:36:44.228Z,15.13
2019-04-16T08:37:49.533Z,11.80
2019-04-16T08:38:54.135Z,11.45
2019-04-16T08:39:58.609Z,12.82
2019-04-16T08:41:03.376Z,13.55
2019-04-16T08:42:07.903Z,16.23
2019-04-16T08:43:12.363Z,16.25
2019-04-16T08:44:16.968Z,14.75
2019-04-16T08:45:21.450Z,13.72
2019-04-16T08:46:28.199Z,11.55
2019-04-16T08:47:32.068Z,13.55
2019-04-16T08:48:36.532Z,11.90
2019-04-16T08:49:41.008Z,12.18
2019-04-16T08:50:49.321Z,12.37
2019-04-16T08:51:53.931Z,13.13
2019-04-16T08:52:58.587Z,12.50
2019-04-16T08:54:03.014Z,12.50
2019-04-16T08:55:07.569Z,10.75
2019-04-16T08:56:12.132Z,11.65
2019-04-16T08:57:16.564Z,10.15
2019-04-16T08:58:21.034Z,11.55
2019-04-16T08:59:25.564Z,12.35
2019-04-16T09:00:30.519Z,12.50
2019-04-16T09:01:35.355Z,10.15
2019-04-16T09:02:39.813Z,11.73
2019-04-16T09:03:44.272Z,12.43
2019-04-16T09:04:48.755Z,11.03
2019-04-16T09:05:53.215Z,12.25
2019-04-16T09:07:10.481Z,10.80
2019-04-16T09:08:13.028Z,10.75
2019-04-16T09:09:24.666Z,11.25
2019-04-16T09:10:35.494Z,9.90
2019-04-16T09:11:41.885Z,11.85
2019-04-16T09:13:02.031Z,9.35
2019-04-16T09:13:59.977Z,11.43
2019-04-16T09:15:06.943Z,10.50
2019-04-16T09:16:11.402Z,10.98
2019-04-16T09:17:17.508Z,10.25
2019-04-16T09:18:29.829Z,11.48
2019-04-16T09:19:35.289Z,11.35
2019-04-16T09:20:40.536Z,9.78
2019-04-16T09:21:44.998Z,11.60
2019-04-16T09:22:52.786Z,8.50
2019-04-16T09:24:13.443Z,13.53
2019-04-16T09:25:19.620Z,11.30
2019-04-16T09:26:28.769Z,11.03
2019-04-16T09:27:40.806Z,11.50
2019-04-16T09:28:49.723Z,8.73
2019-04-16T09:30:04.657Z,8.90
2019-04-16T09:31:18.815Z,9.58
2019-04-16T09:32:24.683Z,10.20
2019-04-16T09:33:35.144Z,7.47
2019-04-16T09:34:41.241Z,9.58
2019-04-16T09:35:59.705Z,10.48
2019-04-16T09:37:25.465Z,11.20
2019-04-16T09:38:49.802Z,8.73
2019-04-16T09:40:17.877Z,9.80
2019-04-16T09:41:20.113Z,10.10
2019-04-16T09:42:24.893Z,11.53
2019-04-16T09:43:31.131Z,7.85
2019-04-16T09:44:35.904Z,11.60
2019-04-16T09:45:40.390Z,11.90
2019-04-16T09:46:51.084Z,12.35
2019-04-16T09:47:51.354Z,11.00
2019-04-16T09:48:56.168Z,11.55
2019-04-16T09:50:00.627Z,9.58
2019-04-16T09:51:05.110Z,10.55
2019-04-16T09:52:09.561Z,9.10
2019-04-16T09:53:14.995Z,10.35
2019-04-16T09:54:19.459Z,11.78
2019-04-16T09:55:23.920Z,11.08
2019-04-16T09:56:29.915Z,12.73
2019-04-16T09:57:35.067Z,9.33
2019-04-16T09:58:42.590Z,10.82
2019-04-16T09:59:47.812Z,13.90
2019-04-16T10:01:00.563Z,10.23
2019-04-16T10:02:06.889Z,9.20
2019-04-16T10:03:15.951Z,11.83
2019-04-16T10:04:21.965Z,11.48
2019-04-16T10:05:29.306Z,13.80
2019-04-16T10:06:32.551Z,14.53
2019-04-16T10:07:39.783Z,11.15
2019-04-16T10:08:44.954Z,12.73
2019-04-16T10:09:51.370Z,11.78
2019-04-16T10:10:58.170Z,10.63
2019-04-16T10:12:04.857Z,11.73
2019-04-16T10:13:07.985Z,8.33
2019-04-16T10:14:12.454Z,10.32
2019-04-16T10:15:17.241Z,10.63
2019-04-16T10:16:23.409Z,14.23
2019-04-16T10:17:27.891Z,14.18
2019-04-16T10:18:35.069Z,11.28
2019-04-16T10:19:42.984Z,14.85
2019-04-16T10:20:44.983Z,11.70
2019-04-16T10:21:53.224Z,9.53
2019-04-16T10:22:55.586Z,12.18
2019-04-16T10:24:07.673Z,9.45
2019-04-16T10:25:13.121Z,13.65
2019-04-16T10:26:17.639Z,13.55
2019-04-16T10:27:23.750Z,11.70
2019-04-16T10:28:34.008Z,13.40
2019-04-16T10:29:39.232Z,10.20
2019-04-16T10:30:47.898Z,13.15
2019-04-16T10:31:53.254Z,10.85
2019-04-16T10:32:57.710Z,18.00
2019-04-16T10:34:02.191Z,13.62
2019-04-16T10:35:06.770Z,11.48
2019-04-16T10:36:11.573Z,10.82
2019-04-16T10:37:16.334Z,11.85
2019-04-16T10:38:22.454Z,12.15
2019-04-16T10:39:44.711Z,10.65
2019-04-16T10:40:57.377Z,12.70
2019-04-16T10:42:09.462Z,11.43
2019-04-16T10:43:43.845Z,10.48
2019-04-16T10:44:55.286Z,13.50
2019-04-16T10:46:03.972Z,15.25
2019-04-16T10:47:13.056Z,10.55
2019-04-16T10:48:19.518Z,10.88
2019-04-16T10:49:25.631Z,12.33
2019-04-16T10:50:31.889Z,11.57
2019-04-16T10:51:44.327Z,10.90
2019-04-16T10:52:54.355Z,12.45
2019-04-16T10:54:01.631Z,11.10
2019-04-16T10:55:14.433Z,11.48
2019-04-16T10:56:36.741Z,14.78
2019-04-16T10:57:48.731Z,14.33
2019-04-16T10:59:06.777Z,11.97
2019-04-16T11:00:13.404Z,11.55
2019-04-16T11:01:19.637Z,11.85
2019-04-16T11:02:28.657Z,12.15
2019-04-16T11:03:34.685Z,13.30
2019-04-16T11:04:56.301Z,17.98
2019-04-16T11:06:02.434Z,15.28
2019-04-16T11:07:11.774Z,12.37
2019-04-16T11:08:16.348Z,13.48
2019-04-16T11:09:21.096Z,12.80
2019-04-16T11:10:25.555Z,15.10
2019-04-16T11:11:30.335Z,19.55
2019-04-16T11:12:35.140Z,15.03
2019-04-16T11:13:58.377Z,13.60
2019-04-16T11:14:50.425Z,12.45
2019-04-16T11:15:55.958Z,16.25
2019-04-16T11:17:00.389Z,13.85
2019-04-16T11:18:06.951Z,13.00
2019-04-16T11:19:11.694Z,16.37
2019-04-16T11:20:16.932Z,13.60
2019-04-16T11:21:21.386Z,12.95
2019-04-16T11:22:25.840Z,16.55
2019-04-16T11:23:30.357Z,14.25
2019-04-16T11:24:34.829Z,15.13
2019-04-16T11:25:39.257Z,12.85
2019-04-16T11:26:44.546Z,16.25
2019-04-16T11:27:49.180Z,14.87
2019-04-16T11:28:53.645Z,15.60
2019-04-16T11:29:58.100Z,15.48
2019-04-16T11:31:07.121Z,13.60
2019-04-16T11:32:13.172Z,15.80
2019-04-16T11:33:17.665Z,10.95
2019-04-16T11:34:22.097Z,13.98
2019-04-16T11:35:26.557Z,14.30
2019-04-16T11:36:31.827Z,14.45
2019-04-16T11:37:36.658Z,14.20
2019-04-16T11:38:41.220Z,20.57
2019-04-16T11:39:45.839Z,11.85
2019-04-16T11:40:50.284Z,13.53
2019-04-16T11:41:54.756Z,15.40
2019-04-16T11:42:59.641Z,11.88
2019-04-16T11:44:15.141Z,12.40
2019-04-16T11:45:13.191Z,13.53
2019-04-16T11:46:17.649Z,12.55
2019-04-16T11:47:22.121Z,14.93
2019-04-16T11:48:26.592Z,12.37
2019-04-16T11:49:31.446Z,12.78
2019-04-16T11:50:36.344Z,12.65
2019-04-16T11:51:40.892Z,15.10
2019-04-16T11:52:45.361Z,15.28
2019-04-16T11:53:49.862Z,12.33
2019-04-16T11:54:54.708Z,12.78
2019-04-16T11:55:59.147Z,15.80
2019-04-16T11:57:03.774Z,14.60
2019-04-16T11:58:09.879Z,14.43
2019-04-16T11:59:14.356Z,14.70
2019-04-16T12:00:37.266Z,12.50
2019-04-16T12:01:43.384Z,16.25
2019-04-16T12:02:50.557Z,11.10
2019-04-16T12:04:15.559Z,12.23
2019-04-16T12:05:20.903Z,13.35
2019-04-16T12:06:28.646Z,12.25
2019-04-16T12:07:37.906Z,12.15
2019-04-16T12:09:00.186Z,11.63
2019-04-16T12:10:08.571Z,11.70
2019-04-16T12:11:21.010Z,11.53
2019-04-16T12:12:29.583Z,14.07
2019-04-16T12:13:45.017Z,11.68
2019-04-16T12:14:57.176Z,14.50
2019-04-16T12:16:09.352Z,13.30
2019-04-16T12:17:18.150Z,16.57
2019-04-16T12:18:24.237Z,13.30
2019-04-16T12:19:33.372Z,24.27
2019-04-16T12:20:45.398Z,13.08
2019-04-16T12:21:51.468Z,16.00
2019-04-16T12:23:06.796Z,12.03
2019-04-16T12:24:19.233Z,12.85
2019-04-16T12:25:29.305Z,10.40
2019-04-16T12:26:38.930Z,12.00
2019-04-16T12:27:48.267Z,11.18
2019-04-16T12:28:57.342Z,10.15
2019-04-16T12:30:12.633Z,11.25
2019-04-16T12:31:27.716Z,14.33
2019-04-16T12:32:33.829Z,12.95
2019-04-16T12:33:39.937Z,11.88
2019-04-16T12:34:51.201Z,11.55
2019-04-16T12:35:56.627Z,12.82
2019-04-16T12:37:19.327Z,16.52
2019-04-16T12:38:25.460Z,10.00
2019-04-16T12:39:35.930Z,13.55
2019-04-16T12:40:57.777Z,9.95
2019-04-16T12:42:06.877Z,9.70
2019-04-16T12:43:15.761Z,9.75
2019-04-16T12:44:24.483Z,12.25
2019-04-16T12:45:37.107Z,11.95
2019-04-16T12:46:43.612Z,10.05
2019-04-16T12:47:49.678Z,13.93
2019-04-16T12:48:56.102Z,12.53
2019-04-16T12:50:17.486Z,13.60
2019-04-16T12:51:34.209Z,12.03
2019-04-16T12:52:41.965Z,10.93
2019-04-16T12:53:53.040Z,13.38
2019-04-16T12:54:59.700Z,12.28
2019-04-16T12:56:12.133Z,12.47
2019-04-16T12:57:20.968Z,12.33
2019-04-16T12:58:36.191Z,11.38
2019-04-16T12:59:48.625Z,10.78
2019-04-16T13:00:59.715Z,11.73
2019-04-16T13:02:22.898Z,9.83
2019-04-16T13:03:29.297Z,14.63
2019-04-16T13:04:35.399Z,10.55
2019-04-16T13:05:47.466Z,11.15
2019-04-16T13:06:59.290Z,11.48
2019-04-16T13:08:17.350Z,11.22
2019-04-16T13:09:29.298Z,12.23
2019-04-16T13:10:50.803Z,11.20
2019-04-16T13:12:00.534Z,10.95
2019-04-16T13:13:22.691Z,12.55
2019-04-16T13:14:31.691Z,14.68
2019-04-16T13:15:49.847Z,11.68
2019-04-16T13:16:58.741Z,12.55
2019-04-16T13:18:04.852Z,8.83
2019-04-16T13:19:13.703Z,9.68
2019-04-16T13:20:20.139Z,10.93
2019-04-16T13:21:26.619Z,10.72
2019-04-16T13:22:33.072Z,12.23
2019-04-16T13:23:45.320Z,10.90
2019-04-16T13:24:54.433Z,11.50
2019-04-16T13:26:06.633Z,11.90
2019-04-16T13:27:20.308Z,12.45
2019-04-16T13:28:25.152Z,13.18
2019-04-16T13:29:30.684Z,11.55
2019-04-16T13:30:35.115Z,12.65
2019-04-16T13:31:39.684Z,12.82
2019-04-16T13:32:44.434Z,12.43
2019-04-16T13:33:50.848Z,11.85
2019-04-16T13:34:58.001Z,12.63
2019-04-16T13:36:01.233Z,15.60
2019-04-16T13:37:06.339Z,12.58
2019-04-16T13:38:11.342Z,12.43
2019-04-16T13:39:23.673Z,9.38
2019-04-16T13:40:28.137Z,10.70
2019-04-16T13:41:32.622Z,12.60
2019-04-16T13:42:37.080Z,11.75
2019-04-16T13:43:58.133Z,10.20
2019-04-16T13:45:16.618Z,12.20
2019-04-16T13:46:13.230Z,11.90
2019-04-16T13:47:17.696Z,13.18
2019-04-16T13:48:27.275Z,13.58
2019-04-16T13:49:40.676Z,10.13
2019-04-16T13:50:46.778Z,13.22
2019-04-16T13:51:51.595Z,13.35
2019-04-16T13:52:57.771Z,10.82
2019-04-16T13:54:09.911Z,12.35
2019-04-16T13:55:16.014Z,10.13
2019-04-16T13:56:22.453Z,10.48
2019-04-16T13:57:28.551Z,11.83
2019-04-16T13:58:37.563Z,10.38
2019-04-16T13:59:55.824Z,17.70
2019-04-16T14:01:02.314Z,14.95
2019-04-16T14:02:20.424Z,12.28
2019-04-16T14:03:25.033Z,14.85
2019-04-16T14:04:31.667Z,14.05
2019-04-16T14:05:38.453Z,11.12
2019-04-16T14:06:46.120Z,10.93
2019-04-16T14:07:49.661Z,9.63
2019-04-16T14:08:54.119Z,12.63
2019-04-16T14:09:59.150Z,14.50
2019-04-16T14:11:03.723Z,23.15
2019-04-16T14:12:08.207Z,11.80
2019-04-16T14:13:14.079Z,12.05
2019-04-16T14:14:22.467Z,14.93
2019-04-16T14:15:32.383Z,11.48
2019-04-16T14:16:33.233Z,11.40
2019-04-16T14:17:51.679Z,12.60
2019-04-16T14:18:43.876Z,11.28
2019-04-16T14:19:48.340Z,12.78
2019-04-16T14:20:52.809Z,11.70
2019-04-16T14:21:57.291Z,11.30
2019-04-16T14:23:01.753Z,11.85
2019-04-16T14:24:06.673Z,13.80
2019-04-16T14:25:11.577Z,10.25
2019-04-16T14:26:16.410Z,12.43
2019-04-16T14:27:21.795Z,15.68
2019-04-16T14:28:26.564Z,9.93
2019-04-16T14:29:31.028Z,16.65
2019-04-16T14:30:39.537Z,13.95
2019-04-16T14:31:46.069Z,10.60
2019-04-16T14:32:50.126Z,12.60
2019-04-16T14:33:56.230Z,15.65
2019-04-16T14:35:02.325Z,11.08
2019-04-16T14:36:08.425Z,10.72